Time;durP1;ratioP1;P1;durP2;ratioP2;P2;SDS_P1;SDS_P2;PMS_P1;PMS_P2;Temp;Humidity;BMP_temperature;BMP_pressure;BME280_temperature;BME280_humidity;BME280_pressure;Samples;Min_cycle;Max_cycle;Signal;HPM_P1;HPM_P2
2024/01/07 00:01:03;;;;;;;3.10;2.07;;;16.20;91.80;;;;;;5035317;28;20173;-91
2024/01/07 00:03:32;;;;;;;2.27;2.07;;;16.30;91.50;;;;;;5035258;28;20185;-90
2024/01/07 00:06:00;;;;;;;2.73;2.10;;;16.30;91.20;;;;;;5035979;28;20200;-91
2024/01/07 00:08:31;;;;;;;2.20;2.00;;;16.40;90.90;;;;;;5035766;28;20185;-91
2024/01/07 00:10:57;;;;;;;2.57;2.23;;;16.50;90.60;;;;;;5034678;28;20354;-91
2024/01/07 00:13:34;;;;;;;2.73;2.20;;;16.60;90.30;;;;;;5034264;28;20240;-90
2024/01/07 00:16:08;;;;;;;2.80;2.07;;;16.70;89.90;;;;;;5034579;28;20429;-91
2024/01/07 00:18:55;;;;;;;2.57;2.30;;;16.70;89.30;;;;;;5019932;28;20208;-90
2024/01/07 00:21:29;;;;;;;3.23;2.20;;;16.80;88.60;;;;;;5033851;28;20175;-90
2024/01/07 00:23:58;;;;;;;4.07;2.30;;;16.80;88.20;;;;;;5035353;28;20182;-90
2024/01/07 00:26:27;;;;;;;3.47;2.10;;;16.90;87.50;;;;;;5035793;28;20184;-91
2024/01/07 00:28:53;;;;;;;2.20;2.00;;;16.90;87.50;;;;;;5036215;28;20185;-91
2024/01/07 00:31:19;;;;;;;2.70;2.20;;;16.90;86.90;;;;;;5035019;28;20214;-91
2024/01/07 00:33:50;;;;;;;2.70;2.00;;;16.90;86.30;;;;;;5034361;28;20214;-90
2024/01/07 00:36:16;;;;;;;2.20;2.00;;;17.00;85.40;;;;;;5035446;28;20181;-91
2024/01/07 00:39:02;;;;;;;2.37;1.97;;;17.10;84.90;;;;;;5035448;28;20203;-90
2024/01/07 00:41:30;;;;;;;2.90;2.10;;;17.20;84.20;;;;;;5033683;28;20207;-91
2024/01/07 00:44:05;;;;;;;2.70;2.00;;;17.20;83.50;;;;;;5034621;28;20274;-91
2024/01/07 00:46:34;;;;;;;2.90;2.17;;;17.20;83.10;;;;;;5033384;28;20172;-90
2024/01/07 00:49:04;;;;;;;2.60;2.10;;;17.20;82.50;;;;;;5034853;28;20186;-90
2024/01/07 00:51:29;;;;;;;2.77;2.23;;;17.20;82.50;;;;;;5033360;28;20209;-91
2024/01/07 00:53:58;;;;;;;2.57;2.27;;;17.20;82.60;;;;;;5032169;28;20195;-91
2024/01/07 00:56:32;;;;;;;2.90;2.60;;;17.00;83.40;;;;;;5033547;28;20238;-91
2024/01/07 00:59:01;;;;;;;2.43;2.23;;;17.00;83.20;;;;;;5033511;28;20177;-91
2024/01/07 01:01:27;;;;;;;2.80;2.50;;;17.00;83.10;;;;;;5033322;28;20178;-90
2024/01/07 01:03:57;;;;;;;2.30;2.10;;;16.90;82.80;;;;;;5033742;28;20187;-92
2024/01/07 01:06:32;;;;;;;2.80;2.37;;;16.80;83.10;;;;;;5032740;28;20180;-91
2024/01/07 01:08:58;;;;;;;3.47;2.20;;;16.80;83.30;;;;;;5034295;28;20180;-91
2024/01/07 01:11:26;;;;;;;3.33;2.77;;;16.70;83.70;;;;;;5033235;28;20218;-91
2024/01/07 01:13:52;;;;;;;3.50;2.63;;;16.70;83.50;;;;;;5034560;28;20186;-91
2024/01/07 01:16:18;;;;;;;3.40;2.47;;;16.60;83.00;;;;;;5034817;28;20226;-91
2024/01/07 01:18:56;;;;;;;4.40;2.43;;;16.60;82.90;;;;;;5033992;28;20181;-91
2024/01/07 01:21:25;;;;;;;3.10;2.50;;;16.60;82.90;;;;;;5034950;28;20186;-91
2024/01/07 01:23:57;;;;;;;3.40;2.83;;;16.60;82.70;;;;;;5035438;28;20272;-91
2024/01/07 01:26:23;;;;;;;3.10;2.60;;;16.60;82.50;;;;;;5035257;28;20181;-91
2024/01/07 01:28:51;;;;;;;3.60;2.60;;;16.60;82.50;;;;;;5036425;28;20311;-91
2024/01/07 01:31:19;;;;;;;3.63;2.77;;;16.60;82.50;;;;;;5035090;28;20289;-91
2024/01/07 01:33:48;;;;;;;3.50;2.60;;;16.60;82.40;;;;;;5035720;28;20186;-90
2024/01/07 01:36:17;;;;;;;4.00;3.00;;;16.60;82.00;;;;;;5035009;28;20269;-91
2024/01/07 01:38:43;;;;;;;5.33;2.80;;;16.70;81.50;;;;;;5034727;28;20178;-90
2024/01/07 01:41:11;;;;;;;3.47;2.60;;;16.70;81.20;;;;;;5034816;28;20202;-90
2024/01/07 01:43:40;;;;;;;4.57;2.83;;;16.60;81.10;;;;;;5036397;28;20184;-90
2024/01/07 01:46:07;;;;;;;3.63;2.70;;;16.70;80.80;;;;;;5035548;28;20187;-91
2024/01/07 01:48:37;;;;;;;3.93;2.80;;;16.70;80.70;;;;;;5035260;28;20181;-90
2024/01/07 01:51:12;;;;;;;3.30;2.83;;;16.70;81.00;;;;;;5034419;28;20254;-90
2024/01/07 01:53:42;;;;;;;3.70;2.87;;;16.70;79.80;;;;;;5037537;28;20284;-91
2024/01/07 01:56:08;;;;;;;4.17;3.07;;;16.80;79.20;;;;;;5039632;28;20172;-91
2024/01/07 02:02:03;;;;;;;2.90;2.60;;;17.00;77.70;;;;;;5036354;28;20225;-90
2024/01/07 02:04:32;;;;;;;4.00;3.60;;;17.00;77.10;;;;;;5037655;28;20177;-91
2024/01/07 02:07:04;;;;;;;3.43;3.13;;;17.10;76.40;;;;;;5037735;28;20193;-91
2024/01/07 02:12:29;;;;;;;3.60;3.00;;;17.30;74.60;;;;;;5014713;28;20194;-91
2024/01/07 02:14:55;;;;;;;3.93;3.30;;;17.40;73.70;;;;;;5032250;28;20181;-90
2024/01/07 02:17:27;;;;;;;3.53;3.17;;;17.30;73.40;;;;;;5030374;28;20294;-91
2024/01/07 02:19:53;;;;;;;3.83;3.30;;;17.30;73.30;;;;;;5031099;28;20285;-91
2024/01/07 02:22:18;;;;;;;3.57;3.03;;;17.30;73.20;;;;;;5031627;28;20285;-90
2024/01/07 02:24:45;;;;;;;4.30;3.37;;;17.20;72.80;;;;;;5031880;28;20272;-91
2024/01/07 02:27:18;;;;;;;4.03;3.40;;;17.20;72.50;;;;;;5032300;28;20184;-91
2024/01/07 02:29:44;;;;;;;3.63;3.27;;;17.10;72.30;;;;;;5034249;28;20624;-91
2024/01/07 02:32:12;;;;;;;3.57;3.03;;;17.10;72.10;;;;;;5034398;28;20183;-91
2024/01/07 02:34:41;;;;;;;3.33;3.03;;;17.10;71.80;;;;;;5035000;28;20644;-91
2024/01/07 02:37:07;;;;;;;3.63;3.00;;;17.10;71.60;;;;;;5036101;28;20220;-91
2024/01/07 02:39:41;;;;;;;3.77;3.30;;;17.20;71.50;;;;;;5034155;28;20228;-90
2024/01/07 02:42:08;;;;;;;4.57;3.40;;;17.20;71.30;;;;;;5035737;28;20501;-91
2024/01/07 02:44:37;;;;;;;3.97;3.37;;;17.20;70.90;;;;;;5035760;28;20177;-91
2024/01/07 02:47:03;;;;;;;3.77;3.23;;;17.20;70.60;;;;;;5037082;28;20173;-91
2024/01/07 02:49:34;;;;;;;3.43;2.93;;;17.30;70.30;;;;;;5035803;28;20528;-91
2024/01/07 02:52:03;;;;;;;3.40;3.03;;;17.30;70.00;;;;;;5034260;28;20172;-91
2024/01/07 02:54:34;;;;;;;4.27;3.33;;;17.30;69.60;;;;;;5035793;28;20172;-91
2024/01/07 02:57:00;;;;;;;3.60;3.30;;;17.40;69.20;;;;;;5035580;28;20182;-91
2024/01/07 02:59:28;;;;;;;4.13;3.47;;;17.40;68.90;;;;;;5037827;28;20169;-91
2024/01/07 03:01:55;;;;;;;3.40;3.03;;;17.40;68.60;;;;;;5037189;28;20317;-90
2024/01/07 03:04:26;;;;;;;4.30;3.60;;;17.40;68.20;;;;;;5033246;28;20180;-90
2024/01/07 03:06:51;;;;;;;4.93;3.70;;;17.30;67.80;;;;;;5039968;28;20524;-91
2024/01/07 03:09:17;;;;;;;4.27;3.40;;;17.30;67.40;;;;;;5043707;28;20256;-90
2024/01/07 03:11:55;;;;;;;4.60;3.40;;;17.30;67.00;;;;;;5039514;28;20740;-91
2024/01/07 03:14:23;;;;;;;4.40;3.67;;;17.40;66.60;;;;;;5035861;28;20598;-90
2024/01/07 03:16:49;;;;;;;4.83;3.90;;;17.30;66.60;;;;;;5036100;28;20176;-91
2024/01/07 03:19:15;;;;;;;5.00;3.67;;;17.20;66.40;;;;;;5035566;28;20182;-90
2024/01/07 03:21:42;;;;;;;4.90;3.40;;;17.20;66.30;;;;;;5035351;28;20174;-91
2024/01/07 03:24:07;;;;;;;3.80;3.23;;;17.20;66.20;;;;;;5036320;28;20248;-90
2024/01/07 03:26:36;;;;;;;4.33;3.50;;;17.20;66.30;;;;;;5035749;28;20215;-90
2024/01/07 03:29:02;;;;;;;4.07;3.23;;;17.10;66.00;;;;;;5035619;28;20268;-91
2024/01/07 03:31:29;;;;;;;4.10;3.20;;;17.20;65.80;;;;;;5036442;28;20300;-91
2024/01/07 03:33:55;;;;;;;3.93;3.47;;;17.20;65.30;;;;;;5036679;28;20217;-91
2024/01/07 03:36:24;;;;;;;3.63;3.23;;;17.30;64.80;;;;;;5035914;28;20172;-90
2024/01/07 03:38:53;;;;;;;3.50;3.20;;;17.50;64.10;;;;;;5034619;28;20197;-90
2024/01/07 03:41:23;;;;;;;3.53;2.97;;;17.50;63.70;;;;;;5033430;28;20513;-91
2024/01/07 03:43:53;;;;;;;4.30;3.33;;;17.60;63.00;;;;;;5035390;28;20179;-91
2024/01/07 03:46:22;;;;;;;3.60;3.20;;;17.70;62.10;;;;;;5034466;28;20205;-91
2024/01/07 03:48:48;;;;;;;3.90;3.40;;;17.80;61.80;;;;;;5036009;28;20180;-91
2024/01/07 03:51:17;;;;;;;3.40;3.10;;;17.90;61.40;;;;;;5036619;28;20202;-91
2024/01/07 03:53:46;;;;;;;3.50;3.20;;;17.90;61.00;;;;;;5036001;28;20557;-90
2024/01/07 03:56:12;;;;;;;3.40;3.10;;;17.90;60.30;;;;;;5036540;28;20176;-91
2024/01/07 03:58:44;;;;;;;4.10;3.50;;;17.90;60.00;;;;;;5035782;28;20169;-91
2024/01/07 04:01:17;;;;;;;3.33;3.03;;;17.90;60.00;;;;;;5035568;28;20415;-91
2024/01/07 04:03:43;;;;;;;3.60;2.97;;;17.90;60.00;;;;;;5036420;28;20183;-91
2024/01/07 04:06:12;;;;;;;3.17;2.87;;;17.90;59.90;;;;;;5036320;28;20186;-91
2024/01/07 04:08:41;;;;;;;3.10;2.80;;;17.90;59.70;;;;;;5036324;28;20173;-90
2024/01/07 04:11:07;;;;;;;3.30;3.00;;;17.90;59.70;;;;;;5036479;28;20222;-91
2024/01/07 04:13:33;;;;;;;3.43;3.00;;;17.90;59.70;;;;;;5035895;28;20169;-91
2024/01/07 04:16:05;;;;;;;3.37;2.80;;;17.90;59.60;;;;;;5035691;28;20171;-91
2024/01/07 04:18:34;;;;;;;4.13;2.90;;;17.90;59.60;;;;;;5035345;28;20495;-91
2024/01/07 04:21:03;;;;;;;3.33;2.93;;;17.90;59.60;;;;;;5035242;28;20217;-91
2024/01/07 04:23:29;;;;;;;4.23;3.10;;;17.90;59.60;;;;;;5034943;28;20590;-91
2024/01/07 04:25:57;;;;;;;3.73;3.10;;;17.90;59.50;;;;;;5035781;28;20183;-90
2024/01/07 04:28:23;;;;;;;3.43;3.07;;;17.80;59.50;;;;;;5035858;28;20184;-90
2024/01/07 04:30:49;;;;;;;3.50;3.00;;;17.70;59.40;;;;;;5034672;28;20330;-90
2024/01/07 04:33:15;;;;;;;3.70;3.20;;;17.60;59.20;;;;;;5032969;28;20298;-90
2024/01/07 04:35:44;;;;;;;4.97;3.40;;;17.60;59.30;;;;;;5034050;28;20313;-90
2024/01/07 04:38:10;;;;;;;3.37;3.07;;;17.50;59.40;;;;;;5033653;28;20166;-90
2024/01/07 04:40:39;;;;;;;3.77;3.23;;;17.50;59.20;;;;;;5034126;28;20183;-90
2024/01/07 04:43:14;;;;;;;3.80;3.40;;;17.40;59.20;;;;;;5033073;28;20193;-89
2024/01/07 04:45:40;;;;;;;3.57;3.23;;;17.40;59.10;;;;;;5033628;28;20180;-90
2024/01/07 04:48:06;;;;;;;4.17;3.30;;;17.50;58.90;;;;;;5034241;28;20213;-90
2024/01/07 04:50:32;;;;;;;3.70;3.20;;;17.50;58.80;;;;;;5034421;28;20230;-89
2024/01/07 04:52:58;;;;;;;3.40;3.03;;;17.50;58.70;;;;;;5032920;28;20216;-90
2024/01/07 04:55:26;;;;;;;3.67;3.37;;;17.50;58.50;;;;;;5034138;28;20334;-90
2024/01/07 04:58:23;;;;;;;3.87;3.13;;;17.60;58.30;;;;;;5034696;28;20178;-90
2024/01/07 05:00:55;;;;;;;3.63;3.20;;;17.60;58.00;;;;;;5027948;28;20185;-90
2024/01/07 05:03:21;;;;;;;3.83;3.10;;;17.60;57.80;;;;;;5035750;28;20247;-89
2024/01/07 05:05:49;;;;;;;4.13;3.40;;;17.70;57.60;;;;;;5034470;28;20172;-89
2024/01/07 05:08:15;;;;;;;4.10;3.30;;;17.70;57.40;;;;;;5034801;28;20211;-89
2024/01/07 05:10:44;;;;;;;3.50;3.10;;;17.80;57.10;;;;;;5034351;28;20555;-89
2024/01/07 05:13:12;;;;;;;4.50;3.70;;;17.80;57.10;;;;;;5034259;28;20169;-89
2024/01/07 05:15:40;;;;;;;3.37;3.07;;;17.80;57.00;;;;;;5034614;28;20169;-89
2024/01/07 05:18:09;;;;;;;3.80;3.40;;;17.90;56.90;;;;;;5034860;28;20204;-89
2024/01/07 05:20:36;;;;;;;3.53;3.23;;;17.90;56.70;;;;;;5033698;28;20620;-90
2024/01/07 05:23:01;;;;;;;4.43;3.17;;;18.00;56.60;;;;;;5034578;28;20611;-90
2024/01/07 05:25:27;;;;;;;4.27;3.30;;;18.00;56.40;;;;;;5032800;28;20170;-89
2024/01/07 05:27:53;;;;;;;4.53;3.10;;;18.00;56.80;;;;;;5036097;28;20173;-89
2024/01/07 05:30:22;;;;;;;3.37;3.07;;;18.00;56.30;;;;;;5037761;28;20228;-89
2024/01/07 05:32:48;;;;;;;3.00;2.70;;;18.00;56.30;;;;;;5038405;28;20171;-89
2024/01/07 05:35:13;;;;;;;3.63;2.97;;;18.10;56.30;;;;;;5038522;28;20182;-89
2024/01/07 05:37:42;;;;;;;3.70;3.07;;;18.10;56.30;;;;;;5038722;28;20165;-89
2024/01/07 05:40:09;;;;;;;3.20;2.90;;;18.00;56.10;;;;;;5039067;28;20553;-89
2024/01/07 05:42:35;;;;;;;4.13;3.00;;;18.00;56.10;;;;;;5037748;28;20185;-89
2024/01/07 05:45:04;;;;;;;3.90;3.17;;;17.90;56.00;;;;;;5036729;28;20223;-89
2024/01/07 05:47:33;;;;;;;3.67;3.27;;;17.90;56.20;;;;;;5037319;28;20203;-89
2024/01/07 05:49:59;;;;;;;4.20;3.37;;;17.80;56.10;;;;;;5039183;28;20507;-89
2024/01/07 05:52:30;;;;;;;3.77;3.37;;;17.70;56.30;;;;;;5037740;28;20382;-90
2024/01/07 05:54:59;;;;;;;3.20;2.90;;;17.60;56.30;;;;;;5038906;28;20170;-90
2024/01/07 05:57:27;;;;;;;3.30;3.00;;;17.60;56.40;;;;;;5040055;28;20177;-90
2024/01/07 05:59:56;;;;;;;3.77;3.07;;;17.60;56.30;;;;;;5039331;28;20183;-89
2024/01/07 06:02:24;;;;;;;3.30;3.00;;;17.60;56.30;;;;;;5039960;28;20269;-90
2024/01/07 06:04:50;;;;;;;4.03;3.30;;;17.60;56.10;;;;;;5040678;28;20217;-90
2024/01/07 06:07:20;;;;;;;4.50;3.50;;;17.60;55.90;;;;;;5040596;28;20173;-90
2024/01/07 06:09:48;;;;;;;3.30;2.70;;;17.80;55.70;;;;;;5039971;28;20209;-90
2024/01/07 06:12:14;;;;;;;3.70;3.10;;;18.10;55.20;;;;;;5039135;28;20210;-90
2024/01/07 06:14:43;;;;;;;5.00;3.60;;;18.40;54.80;;;;;;5039352;28;20179;-90
2024/01/07 06:17:08;;;;;;;3.90;3.20;;;18.80;54.20;;;;;;5040620;28;20171;-90
2024/01/07 06:19:37;;;;;;;3.57;3.07;;;19.10;53.60;;;;;;5038071;28;20484;-90
2024/01/07 06:22:03;;;;;;;3.90;3.20;;;19.20;53.10;;;;;;5049150;28;20204;-90
2024/01/07 06:24:31;;;;;;;4.23;3.50;;;19.30;53.10;;;;;;5050819;28;20198;-90
2024/01/07 06:27:03;;;;;;;3.97;3.30;;;19.40;52.50;;;;;;5045412;28;20170;-90
2024/01/07 06:29:29;;;;;;;3.60;3.10;;;19.30;52.30;;;;;;5040135;28;20188;-90
2024/01/07 06:31:55;;;;;;;4.17;3.60;;;19.20;52.20;;;;;;5037276;28;20232;-90
2024/01/07 06:34:23;;;;;;;4.00;3.50;;;19.10;52.10;;;;;;5039689;28;20183;-90
2024/01/07 06:36:49;;;;;;;5.17;3.80;;;19.00;52.30;;;;;;5039105;28;20482;-90
2024/01/07 06:39:15;;;;;;;4.23;3.30;;;18.80;52.30;;;;;;5038155;28;20185;-90
2024/01/07 06:41:41;;;;;;;4.47;3.73;;;18.70;52.60;;;;;;5039113;28;20250;-90
2024/01/07 06:44:09;;;;;;;4.57;3.50;;;18.40;52.80;;;;;;5039469;28;20194;-90
2024/01/07 06:46:43;;;;;;;3.93;3.30;;;18.20;53.00;;;;;;5038348;28;20180;-90
2024/01/07 06:49:09;;;;;;;4.07;3.47;;;17.90;53.30;;;;;;5039077;28;20194;-90
2024/01/07 06:51:35;;;;;;;4.10;3.40;;;17.70;53.60;;;;;;5038842;28;20208;-90
2024/01/07 06:54:03;;;;;;;3.83;3.43;;;17.50;53.90;;;;;;5039720;28;20189;-90
2024/01/07 06:56:29;;;;;;;4.20;3.53;;;17.30;54.30;;;;;;5038889;28;20205;-90
2024/01/07 06:58:58;;;;;;;4.30;3.47;;;17.10;54.60;;;;;;5036889;28;20200;-90
2024/01/07 07:01:33;;;;;;;4.93;3.47;;;17.00;54.90;;;;;;5035964;28;20256;-90
2024/01/07 07:04:00;;;;;;;4.03;3.20;;;17.00;55.00;;;;;;5037220;28;20185;-90
2024/01/07 07:06:26;;;;;;;5.73;3.70;;;16.90;55.10;;;;;;5037496;28;20178;-90
2024/01/07 07:08:52;;;;;;;3.97;3.33;;;16.70;55.50;;;;;;5038184;28;20175;-90
2024/01/07 07:11:25;;;;;;;5.27;3.73;;;16.50;55.90;;;;;;5027819;28;20216;-90
2024/01/07 07:13:53;;;;;;;6.10;4.17;;;16.30;56.30;;;;;;5023641;28;20239;-90
2024/01/07 07:16:23;;;;;;;4.50;3.70;;;16.00;56.60;;;;;;5021017;28;20170;-90
2024/01/07 07:18:52;;;;;;;4.87;4.03;;;15.80;57.00;;;;;;5021756;28;20175;-89
2024/01/07 07:22:03;;;;;;;4.70;3.53;;;15.60;57.60;;;;;;5022032;28;20169;-89
2024/01/07 07:24:07;;;;;;;5.00;4.03;;;15.40;58.00;;;;;;5013847;28;20561;-89
2024/01/07 07:26:35;;;;;;;4.97;3.67;;;15.20;58.50;;;;;;5022249;28;20185;-90
2024/01/07 07:29:11;;;;;;;4.53;3.27;;;15.20;58.90;;;;;;5020434;28;20188;-89
2024/01/07 07:31:37;;;;;;;4.90;3.57;;;17.40;56.40;;;;;;5018820;28;20654;-89
2024/01/07 07:34:11;;;;;;;3.40;3.10;;;19.30;52.80;;;;;;5017533;28;20268;-90
2024/01/07 07:36:37;;;;;;;3.53;3.17;;;19.80;51.40;;;;;;5016249;28;20171;-89
2024/01/07 07:39:03;;;;;;;4.50;3.60;;;19.90;50.90;;;;;;5016269;28;20311;-90
2024/01/07 07:41:36;;;;;;;4.73;3.90;;;20.30;50.20;;;;;;5029270;28;20186;-90
2024/01/07 07:44:02;;;;;;;4.10;3.47;;;20.40;49.80;;;;;;5034942;28;20192;-90
2024/01/07 07:46:37;;;;;;;4.20;3.50;;;20.60;49.50;;;;;;5035786;28;20275;-89
2024/01/07 07:49:03;;;;;;;4.03;3.40;;;20.60;49.20;;;;;;5036126;28;20180;-89
2024/01/07 07:51:32;;;;;;;4.23;3.67;;;20.60;49.10;;;;;;5043499;28;20218;-90
2024/01/07 07:54:04;;;;;;;4.13;3.50;;;20.50;48.90;;;;;;5036924;28;20397;-90
2024/01/07 07:56:36;;;;;;;3.80;3.40;;;20.40;49.10;;;;;;5035431;28;20180;-90
2024/01/07 07:59:03;;;;;;;3.40;3.10;;;20.20;49.30;;;;;;5034011;28;20183;-90
2024/01/07 08:01:31;;;;;;;4.30;3.30;;;19.80;49.50;;;;;;5033640;28;20200;-90
2024/01/07 08:03:57;;;;;;;3.40;2.77;;;19.50;49.90;;;;;;5032443;28;20183;-89
2024/01/07 08:06:23;;;;;;;4.07;3.33;;;19.00;50.30;;;;;;5032557;28;20176;-90
2024/01/07 08:08:51;;;;;;;5.87;3.37;;;18.80;50.70;;;;;;5034400;28;20184;-89
2024/01/07 08:11:20;;;;;;;3.63;2.97;;;18.40;51.00;;;;;;5033994;28;20605;-90
2024/01/07 08:13:50;;;;;;;3.67;3.23;;;18.10;51.40;;;;;;5033383;28;20175;-89
2024/01/07 08:16:21;;;;;;;3.97;3.20;;;17.80;51.80;;;;;;5033406;28;20321;-90
2024/01/07 08:18:56;;;;;;;4.03;3.20;;;17.50;52.30;;;;;;5033616;28;20170;-89
2024/01/07 08:21:25;;;;;;;3.87;3.33;;;17.20;52.70;;;;;;5033381;28;20171;-89
2024/01/07 08:23:54;;;;;;;4.50;3.10;;;17.00;53.10;;;;;;5033323;28;20180;-90
2024/01/07 08:26:20;;;;;;;3.23;2.90;;;16.80;53.50;;;;;;5033653;28;20179;-89
2024/01/07 08:28:47;;;;;;;3.47;3.10;;;16.50;53.90;;;;;;5034186;28;20169;-89
2024/01/07 08:31:12;;;;;;;3.87;3.47;;;16.30;54.30;;;;;;5032291;28;20204;-89
2024/01/07 08:33:44;;;;;;;3.30;2.90;;;16.10;54.80;;;;;;5033219;28;20173;-89
2024/01/07 08:36:14;;;;;;;4.73;3.17;;;15.90;55.10;;;;;;5033095;28;20202;-89
2024/01/07 08:38:40;;;;;;;3.70;3.00;;;15.90;55.40;;;;;;5034436;28;20174;-89
2024/01/07 08:41:06;;;;;;;3.33;3.00;;;16.10;55.30;;;;;;5034377;28;20184;-89
2024/01/07 08:43:33;;;;;;;3.93;3.17;;;16.60;54.70;;;;;;5034913;28;20575;-88
2024/01/07 08:46:04;;;;;;;3.60;2.83;;;17.20;53.60;;;;;;5034055;28;20176;-88
2024/01/07 08:48:30;;;;;;;3.00;2.63;;;18.10;52.50;;;;;;5034027;28;20238;-88
2024/01/07 08:51:03;;;;;;;3.30;3.00;;;19.00;51.20;;;;;;5019571;28;20199;-88
2024/01/07 08:53:35;;;;;;;3.83;3.00;;;19.60;50.00;;;;;;5014842;28;20171;-88
2024/01/07 08:56:00;;;;;;;3.53;3.00;;;20.20;49.10;;;;;;5013200;28;20221;-89
2024/01/07 08:58:37;;;;;;;4.93;3.00;;;20.40;48.60;;;;;;5012330;28;20178;-89
2024/01/07 09:01:06;;;;;;;4.47;2.80;;;20.40;48.20;;;;;;5012735;28;20208;-89
2024/01/07 09:03:34;;;;;;;3.57;3.00;;;20.30;48.10;;;;;;5011988;28;20172;-89
2024/01/07 09:06:24;;;;;;;3.70;3.13;;;20.20;48.10;;;;;;5013183;28;20234;-90
2024/01/07 09:08:50;;;;;;;3.60;3.30;;;20.10;48.00;;;;;;5012479;28;20177;-90
2024/01/07 09:11:23;;;;;;;3.77;2.77;;;19.70;48.10;;;;;;5025706;28;20206;-90
2024/01/07 09:14:16;;;;;;;3.80;3.00;;;19.50;48.50;;;;;;5033375;28;20178;-89
2024/01/07 09:16:45;;;;;;;3.40;3.10;;;19.10;48.70;;;;;;5032763;28;20172;-89
2024/01/07 09:19:14;;;;;;;4.20;3.20;;;18.70;49.00;;;;;;5032065;28;20175;-89
2024/01/07 09:22:02;;;;;;;3.70;3.00;;;18.30;49.30;;;;;;5032113;28;20179;-89
2024/01/07 09:24:34;;;;;;;3.87;3.20;;;18.00;49.80;;;;;;5033508;28;20196;-89
2024/01/07 09:27:00;;;;;;;3.30;2.90;;;17.70;50.20;;;;;;5035206;28;20575;-89
2024/01/07 09:29:29;;;;;;;3.53;2.87;;;17.30;50.60;;;;;;5033750;28;20173;-89
2024/01/07 09:32:03;;;;;;;3.70;3.13;;;17.10;51.00;;;;;;5033426;28;20193;-89
2024/01/07 09:34:32;;;;;;;3.93;3.13;;;16.80;51.40;;;;;;5034154;28;20469;-90
2024/01/07 09:37:27;;;;;;;3.57;3.17;;;16.60;51.70;;;;;;5033640;28;20235;-89
2024/01/07 09:39:53;;;;;;;3.50;3.10;;;16.40;52.20;;;;;;5002025;28;20268;-89
2024/01/07 09:42:22;;;;;;;3.47;3.13;;;16.50;52.20;;;;;;5033866;28;20489;-89
2024/01/07 09:44:50;;;;;;;3.80;2.93;;;16.60;52.10;;;;;;5032739;28;20200;-89
2024/01/07 09:47:20;;;;;;;4.73;2.93;;;16.90;51.80;;;;;;5034503;28;20216;-89
2024/01/07 09:49:48;;;;;;;5.27;3.30;;;17.50;51.30;;;;;;5032965;28;20187;-89
2024/01/07 09:52:14;;;;;;;2.97;2.67;;;18.00;50.60;;;;;;5035406;28;20177;-89
2024/01/07 09:54:57;;;;;;;2.87;2.33;;;18.40;49.90;;;;;;5034293;28;20200;-89
2024/01/07 09:57:32;;;;;;;4.07;2.83;;;18.70;49.40;;;;;;5035226;28;20597;-89
2024/01/07 09:59:59;;;;;;;3.83;2.77;;;19.10;49.00;;;;;;5034638;28;20177;-89
2024/01/07 10:02:27;;;;;;;5.20;2.60;;;19.20;48.60;;;;;;5034510;28;20362;-89
2024/01/07 10:04:53;;;;;;;3.57;2.87;;;19.30;48.50;;;;;;5033794;28;20201;-89
2024/01/07 10:07:32;;;;;;;3.00;2.70;;;19.30;48.50;;;;;;5034675;28;20179;-89
2024/01/07 10:10:20;;;;;;;3.50;2.90;;;19.20;48.40;;;;;;5033370;28;20385;-89
2024/01/07 10:12:59;;;;;;;3.37;3.07;;;19.20;48.40;;;;;;5034152;28;20275;-88
2024/01/07 10:15:25;;;;;;;4.53;3.37;;;19.20;48.30;;;;;;5037372;28;20177;-89
2024/01/07 10:18:10;;;;;;;5.57;3.00;;;19.10;48.50;;;;;;5035967;28;20178;-89
2024/01/07 10:20:42;;;;;;;4.03;3.10;;;19.10;48.90;;;;;;5036137;28;20181;-89
2024/01/07 10:23:21;;;;;;;3.67;3.03;;;18.80;49.30;;;;;;5035805;28;20248;-89
2024/01/07 10:25:50;;;;;;;5.40;3.00;;;18.50;50.10;;;;;;5035336;28;20187;-89
2024/01/07 10:28:16;;;;;;;6.77;3.60;;;18.30;50.60;;;;;;5034940;28;20350;-88
2024/01/07 10:30:52;;;;;;;7.83;3.53;;;18.00;51.20;;;;;;5033588;28;20221;-89
2024/01/07 10:33:19;;;;;;;4.63;3.03;;;17.80;51.50;;;;;;5033568;28;20274;-89
2024/01/07 10:35:55;;;;;;;5.13;3.40;;;17.60;52.10;;;;;;5031310;28;20190;-88
2024/01/07 10:38:26;;;;;;;5.20;3.20;;;17.30;52.60;;;;;;5018071;28;20228;-89
2024/01/07 10:41:02;;;;;;;5.37;3.20;;;17.00;53.10;;;;;;5031186;28;20280;-89
2024/01/07 10:43:36;;;;;;;3.93;3.10;;;16.70;53.70;;;;;;5036326;28;20210;-89
2024/01/07 10:46:03;;;;;;;4.63;3.10;;;16.40;54.30;;;;;;5036692;28;20199;-89
2024/01/07 10:48:34;;;;;;;8.33;3.47;;;16.30;54.80;;;;;;5032329;28;20200;-89
2024/01/07 10:51:12;;;;;;;4.27;3.17;;;16.20;55.10;;;;;;5035409;28;20662;-89
2024/01/07 10:53:42;;;;;;;5.57;3.40;;;16.30;55.30;;;;;;5034336;28;20173;-89
2024/01/07 10:56:23;;;;;;;5.17;3.33;;;16.30;55.40;;;;;;5035728;28;20260;-89
2024/01/07 10:59:03;;;;;;;5.30;3.13;;;16.50;55.60;;;;;;5034425;28;20194;-89
2024/01/07 11:01:37;;;;;;;6.93;3.17;;;16.70;55.50;;;;;;5034291;28;20180;-89
2024/01/07 11:04:24;;;;;;;6.23;3.60;;;17.00;55.10;;;;;;5032702;28;20449;-89
2024/01/07 11:07:08;;;;;;;5.87;3.50;;;17.60;54.80;;;;;;5031412;28;20185;-89
2024/01/07 11:10:04;;;;;;;7.80;3.40;;;18.10;54.00;;;;;;5032680;28;20585;-89
2024/01/07 11:12:35;;;;;;;5.90;3.17;;;18.40;53.50;;;;;;5011805;28;20776;-89
2024/01/07 11:15:04;;;;;;;6.30;3.00;;;18.50;53.30;;;;;;5013883;28;20886;-89
2024/01/07 11:17:40;;;;;;;5.03;3.13;;;18.30;53.10;;;;;;5031799;28;20183;-89
2024/01/07 11:20:21;;;;;;;6.97;3.60;;;18.10;52.80;;;;;;5037479;28;20178;-90
2024/01/07 11:22:50;;;;;;;6.97;3.60;;;17.80;52.70;;;;;;5036588;28;20203;-87
2024/01/07 11:25:35;;;;;;;7.30;3.40;;;17.40;52.70;;;;;;5035648;28;20195;-88
2024/01/07 11:28:04;;;;;;;5.73;2.93;;;17.10;53.00;;;;;;5036624;28;20219;-90
2024/01/07 11:30:37;;;;;;;5.73;3.13;;;17.00;53.00;;;;;;5032621;28;20227;-88
2024/01/07 11:33:11;;;;;;;5.03;2.97;;;17.30;52.30;;;;;;5035442;28;20405;-89
2024/01/07 11:35:57;;;;;;;5.37;3.20;;;17.50;51.60;;;;;;5035982;28;20184;-89
2024/01/07 11:38:23;;;;;;;4.20;2.83;;;17.90;51.30;;;;;;5036788;28;20177;-89
2024/01/07 11:40:55;;;;;;;5.27;3.07;;;18.50;50.60;;;;;;5037378;28;20185;-89
2024/01/07 11:43:21;;;;;;;6.17;2.97;;;18.90;49.80;;;;;;5035371;28;20735;-89
2024/01/07 11:45:54;;;;;;;3.60;2.90;;;19.20;49.00;;;;;;5036774;28;20198;-89
2024/01/07 11:48:23;;;;;;;5.30;2.90;;;19.20;48.70;;;;;;5034983;28;20233;-89
2024/01/07 11:50:52;;;;;;;4.43;3.07;;;19.20;48.20;;;;;;5034521;28;20311;-89
2024/01/07 11:53:20;;;;;;;4.93;3.23;;;19.30;47.90;;;;;;5034658;28;20224;-89
2024/01/07 11:55:50;;;;;;;5.30;2.90;;;19.30;47.50;;;;;;5035139;28;20176;-89
2024/01/07 11:58:16;;;;;;;4.30;2.90;;;19.40;48.00;;;;;;5037420;28;20173;-89
2024/01/07 12:00:45;;;;;;;4.57;2.70;;;19.20;47.60;;;;;;5035996;28;20187;-89
2024/01/07 12:03:16;;;;;;;3.27;2.70;;;19.10;47.70;;;;;;5035318;28;20177;-89
2024/01/07 12:05:45;;;;;;;4.00;2.63;;;18.90;47.50;;;;;;5035556;28;20188;-89
2024/01/07 12:08:18;;;;;;;4.27;2.73;;;18.70;47.50;;;;;;5035118;28;20515;-89
2024/01/07 12:10:48;;;;;;;3.00;2.53;;;18.60;47.60;;;;;;5033720;28;20212;-89
2024/01/07 12:13:14;;;;;;;3.70;2.70;;;18.40;47.80;;;;;;5030463;28;20340;-89
2024/01/07 12:15:43;;;;;;;3.97;2.30;;;18.20;48.00;;;;;;5030106;28;20172;-89
2024/01/07 12:18:12;;;;;;;3.97;2.73;;;18.00;48.00;;;;;;5031845;28;20174;-89
2024/01/07 12:20:40;;;;;;;3.73;2.40;;;17.80;48.20;;;;;;5030675;28;20268;-89
2024/01/07 12:23:12;;;;;;;3.53;2.37;;;17.50;48.40;;;;;;5030962;28;20338;-89
2024/01/07 12:25:40;;;;;;;4.20;2.50;;;17.40;48.70;;;;;;5032423;28;20492;-89
2024/01/07 12:28:56;;;;;;;4.60;2.80;;;17.30;49.00;;;;;;5032896;28;20174;-89
2024/01/07 12:34:13;;;;;;;4.17;2.30;;;17.00;49.00;;;;;;5033287;28;20518;-89
2024/01/07 12:36:54;;;;;;;3.53;2.40;;;17.00;48.90;;;;;;5031829;28;20203;-89
2024/01/07 12:39:21;;;;;;;4.67;2.47;;;17.00;48.80;;;;;;5038544;28;20181;-89
2024/01/07 12:42:13;;;;;;;3.03;2.43;;;17.10;48.90;;;;;;5031636;28;20223;-89
2024/01/07 12:45:12;;;;;;;;;;;;;;;;;;;;;
2024/01/07 12:48:02;;;;;;;3.20;2.30;;;17.70;48.20;;;;;;5032505;28;20184;-89
2024/01/07 12:50:40;;;;;;;3.20;2.27;;;18.00;47.50;;;;;;5032035;28;20650;-89
2024/01/07 12:53:21;;;;;;;3.10;2.30;;;18.40;46.90;;;;;;5031002;28;20169;-89
2024/01/07 12:56:19;;;;;;;3.77;2.20;;;18.70;46.20;;;;;;5031726;28;20175;-89
2024/01/07 12:58:51;;;;;;;2.40;2.20;;;18.90;45.90;;;;;;5032675;28;20173;-89
2024/01/07 13:01:19;;;;;;;3.17;2.30;;;19.00;45.90;;;;;;5031860;28;20231;-89
2024/01/07 13:03:48;;;;;;;3.53;2.40;;;19.00;45.90;;;;;;5031600;28;20275;-89
2024/01/07 13:06:14;;;;;;;4.13;2.23;;;19.00;46.10;;;;;;5031564;28;20185;-89
2024/01/07 13:09:03;;;;;;;6.67;2.40;;;19.00;46.30;;;;;;5026429;28;20177;-89
2024/01/07 13:11:41;;;;;;;2.90;2.23;;;19.00;46.30;;;;;;5022455;28;20224;-89
2024/01/07 13:14:10;;;;;;;3.17;2.10;;;19.10;46.30;;;;;;5034589;28;20206;-89